Time;durP1;ratioP1;P1;durP2;ratioP2;P2;SDS_P1;SDS_P2;PMS_P1;PMS_P2;Temp;Humidity;BMP_temperature;BMP_pressure;BME280_temperature;BME280_humidity;BME280_pressure;Samples;Min_cycle;Max_cycle;Signal;HPM_P1;HPM_P2
2022/12/11 00:02:00;;;;;;;200.47;31.03;;;-0.40;99.90;;;;;;5033282;28;20526;-29
2022/12/11 00:04:26;;;;;;;180.57;31.83;;;-1.20;99.90;;;;;;5033594;28;20053;-28
2022/12/11 00:06:52;;;;;;;172.07;32.17;;;-1.10;99.90;;;;;;5032705;28;20388;-29
2022/12/11 00:09:19;;;;;;;184.30;33.47;;;-1.10;99.90;;;;;;5016384;28;20092;-29
2022/12/11 00:11:46;;;;;;;175.47;31.77;;;-1.30;99.90;;;;;;5032922;28;20050;-28
2022/12/11 00:14:13;;;;;;;184.00;32.03;;;-1.00;99.90;;;;;;5034050;28;20403;-29
2022/12/11 00:16:38;;;;;;;197.53;33.40;;;-0.70;99.90;;;;;;5033446;28;20526;-29
2022/12/11 00:19:04;;;;;;;203.10;34.57;;;-1.00;99.90;;;;;;5065503;28;20046;-29
2022/12/11 00:21:30;;;;;;;206.17;34.97;;;-1.10;99.90;;;;;;5033322;28;20050;-29
2022/12/11 00:23:56;;;;;;;193.33;33.63;;;-1.10;99.90;;;;;;5033960;28;20045;-29
2022/12/11 00:26:22;;;;;;;211.80;32.30;;;-1.10;99.90;;;;;;5033572;28;20088;-28
2022/12/11 00:28:52;;;;;;;201.73;34.00;;;-1.00;99.90;;;;;;5016272;28;20052;-30
2022/12/11 00:31:19;;;;;;;211.57;32.70;;;-1.10;99.90;;;;;;5034694;28;20385;-28
2022/12/11 00:33:47;;;;;;;180.43;32.27;;;-1.00;99.90;;;;;;5036273;28;20102;-29
2022/12/11 00:36:15;;;;;;;181.23;31.60;;;-1.10;99.90;;;;;;5038016;28;20045;-29
2022/12/11 00:38:42;;;;;;;180.60;31.27;;;-0.90;99.90;;;;;;5069323;28;20141;-28
2022/12/11 00:41:08;;;;;;;163.47;30.67;;;-0.90;99.90;;;;;;5035961;28;20056;-29
2022/12/11 00:43:34;;;;;;;165.77;30.67;;;-0.90;99.90;;;;;;5037086;28;20399;-29
2022/12/11 00:45:59;;;;;;;188.97;33.10;;;-1.00;99.90;;;;;;5037092;28;20491;-29
2022/12/11 00:48:25;;;;;;;160.97;30.13;;;-0.80;99.90;;;;;;5037257;28;20045;-29
2022/12/11 00:50:51;;;;;;;166.17;31.53;;;-0.90;99.90;;;;;;5036935;28;20089;-29
2022/12/11 00:53:17;;;;;;;157.73;29.27;;;-0.80;99.90;;;;;;5036891;28;20054;-29
2022/12/11 00:55:43;;;;;;;156.20;30.93;;;-0.80;99.90;;;;;;5036870;28;20498;-29
2022/12/11 00:58:10;;;;;;;169.70;32.37;;;-1.00;99.90;;;;;;5052999;28;20033;-29
2022/12/11 01:00:36;;;;;;;132.57;27.70;;;-1.00;99.90;;;;;;5036058;28;20483;-29
2022/12/11 01:03:02;;;;;;;155.63;29.60;;;-0.70;99.90;;;;;;5036449;28;20407;-29
2022/12/11 01:05:28;;;;;;;165.93;31.83;;;-0.90;99.90;;;;;;5036678;28;20527;-29
2022/12/11 01:07:54;;;;;;;132.60;25.67;;;-0.90;99.90;;;;;;5068991;28;20095;-29
2022/12/11 01:10:23;;;;;;;158.57;30.23;;;-0.90;99.90;;;;;;5036563;28;20045;-29
2022/12/11 01:12:54;;;;;;;143.73;27.17;;;-0.90;99.90;;;;;;5036573;28;20131;-29
2022/12/11 01:15:21;;;;;;;129.57;27.40;;;-0.70;99.90;;;;;;5035334;28;20091;-29
2022/12/11 01:17:48;;;;;;;144.37;30.93;;;-0.70;99.90;;;;;;5036415;28;20052;-29
2022/12/11 01:20:14;;;;;;;156.00;29.53;;;-0.70;99.90;;;;;;5036459;28;20056;-30
2022/12/11 01:22:40;;;;;;;128.70;27.10;;;-0.70;99.90;;;;;;5036027;28;20550;-29
2022/12/11 01:25:06;;;;;;;114.63;25.00;;;-0.80;99.90;;;;;;5036043;28;20081;-28
2022/12/11 01:27:32;;;;;;;158.60;30.00;;;-0.70;99.90;;;;;;5037143;28;20053;-29
2022/12/11 01:29:57;;;;;;;143.27;29.40;;;-0.70;99.90;;;;;;5036264;28;20041;-29
2022/12/11 01:32:23;;;;;;;172.17;30.93;;;-0.80;99.90;;;;;;5036453;28;20052;-29
2022/12/11 01:34:49;;;;;;;157.27;29.70;;;-0.70;99.90;;;;;;5036180;28;20415;-29
2022/12/11 01:37:15;;;;;;;158.63;31.20;;;-0.70;99.90;;;;;;5002334;28;20052;-30
2022/12/11 01:39:40;;;;;;;161.77;30.87;;;-0.60;99.90;;;;;;5036844;28;20053;-29
2022/12/11 01:42:10;;;;;;;151.67;28.97;;;-0.70;99.90;;;;;;5036052;28;20045;-29
2022/12/11 01:44:36;;;;;;;163.37;30.40;;;-0.80;99.90;;;;;;5035215;28;20049;-29
2022/12/11 01:47:01;;;;;;;173.73;31.93;;;-0.70;99.90;;;;;;5036478;28;20060;-29
2022/12/11 01:49:28;;;;;;;174.37;31.60;;;-0.80;99.90;;;;;;5034969;28;20041;-29
2022/12/11 01:52:06;;;;;;;164.93;29.00;;;-0.80;99.90;;;;;;5036374;28;20452;-29
2022/12/11 01:54:32;;;;;;;208.93;34.07;;;-0.60;99.90;;;;;;5036648;28;20057;-29
2022/12/11 01:57:03;;;;;;;197.10;32.83;;;-0.90;99.90;;;;;;5035750;28;20049;-29
2022/12/11 01:59:33;;;;;;;231.17;35.47;;;-0.80;99.90;;;;;;5035917;28;20550;-29
2022/12/11 02:02:11;;;;;;;217.17;36.63;;;-0.70;99.90;;;;;;5035661;28;20053;-30
2022/12/11 02:04:38;;;;;;;215.40;36.03;;;-0.60;99.90;;;;;;5035673;28;20092;-29
2022/12/11 02:07:04;;;;;;;193.67;34.50;;;-0.60;99.90;;;;;;5035378;28;20056;-30
2022/12/11 02:09:33;;;;;;;191.77;34.37;;;-0.70;99.90;;;;;;5035495;28;20037;-30
2022/12/11 02:12:50;;;;;;;198.77;34.53;;;-0.60;99.90;;;;;;5067729;28;20049;-30
2022/12/11 02:15:31;;;;;;;192.03;35.43;;;-0.70;99.90;;;;;;5023415;28;20058;-30
2022/12/11 02:18:34;;;;;;;198.40;33.80;;;-0.80;99.90;;;;;;5035898;28;20060;-30
2022/12/11 02:21:10;;;;;;;205.05;34.00;;;-0.70;99.90;;;;;;5034849;28;20648;-29
2022/12/11 02:23:57;;;;;;;252.20;36.70;;;-0.60;99.90;;;;;;5035170;28;20042;-29
2022/12/11 02:26:35;;;;;;;266.13;39.10;;;-0.70;99.90;;;;;;5034827;28;20065;-29
2022/12/11 02:29:07;;;;;;;254.27;38.37;;;-0.70;99.90;;;;;;5034744;28;20094;-29
2022/12/11 02:32:01;;;;;;;266.53;39.43;;;-0.70;99.90;;;;;;5035366;28;20535;-29
2022/12/11 02:34:38;;;;;;;253.03;38.10;;;-0.50;99.90;;;;;;5035895;28;20077;-29
2022/12/11 02:37:09;;;;;;;261.00;37.90;;;-0.70;99.90;;;;;;5035529;28;20085;-30
2022/12/11 02:39:39;;;;;;;262.10;37.80;;;-0.60;99.90;;;;;;5034895;28;20143;-30
2022/12/11 02:42:07;;;;;;;265.43;37.77;;;-0.70;99.90;;;;;;5034872;28;20451;-29
2022/12/11 02:44:33;;;;;;;282.37;39.13;;;-0.70;99.90;;;;;;5034875;28;20387;-29
2022/12/11 02:47:01;;;;;;;256.33;38.10;;;-0.50;99.90;;;;;;5033616;28;20048;-30
2022/12/11 02:49:29;;;;;;;251.43;36.20;;;-0.70;99.90;;;;;;5034722;28;20045;-29
2022/12/11 02:51:56;;;;;;;275.90;38.50;;;-0.60;99.90;;;;;;5034662;28;20049;-29
2022/12/11 02:54:32;;;;;;;291.27;40.33;;;-0.60;99.90;;;;;;5034445;28;20049;-29
2022/12/11 02:57:23;;;;;;;305.43;42.20;;;-0.50;99.90;;;;;;5050861;28;20081;-29
2022/12/11 02:59:48;;;;;;;285.17;39.47;;;-0.70;99.90;;;;;;5024457;28;20064;-29
2022/12/11 03:02:16;;;;;;;321.87;43.53;;;-0.50;99.90;;;;;;5034505;28;20046;-29
2022/12/11 03:04:43;;;;;;;291.70;41.67;;;-0.60;99.90;;;;;;5034459;28;20068;-30
2022/12/11 03:07:16;;;;;;;264.40;39.10;;;-0.60;99.90;;;;;;5035038;28;20042;-30
2022/12/11 03:09:45;;;;;;;294.87;41.00;;;-0.60;99.90;;;;;;5035050;28;20056;-29
2022/12/11 03:12:14;;;;;;;272.87;39.47;;;-0.40;99.90;;;;;;5035138;28;20068;-29
2022/12/11 03:14:41;;;;;;;260.60;38.57;;;-0.50;99.90;;;;;;5034290;28;20056;-29
2022/12/11 03:17:18;;;;;;;301.83;41.17;;;-0.60;99.90;;;;;;5034241;28;20088;-30
2022/12/11 03:20:21;;;;;;;273.47;37.20;;;-0.40;99.90;;;;;;5034168;28;20483;-30
2022/12/11 03:23:08;;;;;;;291.33;38.23;;;-0.50;99.90;;;;;;5067353;28;20120;-29
2022/12/11 03:25:55;;;;;;;271.23;36.93;;;-0.40;99.90;;;;;;5034053;28;20049;-29
2022/12/11 03:28:32;;;;;;;242.13;37.00;;;-0.50;99.90;;;;;;5034049;28;20514;-29
2022/12/11 03:31:04;;;;;;;275.47;37.90;;;-0.60;99.90;;;;;;5049960;28;20049;-29
2022/12/11 03:33:36;;;;;;;295.57;36.03;;;-0.30;99.90;;;;;;5034110;28;20387;-29
2022/12/11 03:36:07;;;;;;;280.93;37.63;;;-0.60;99.90;;;;;;5034831;28;20123;-30
2022/12/11 03:38:42;;;;;;;263.37;37.93;;;-0.60;99.90;;;;;;5033818;28;20041;-30
2022/12/11 03:41:09;;;;;;;245.80;33.83;;;-0.50;99.90;;;;;;5033038;28;20050;-30
2022/12/11 03:43:36;;;;;;;280.43;39.87;;;-0.30;99.90;;;;;;5032593;28;20049;-30
2022/12/11 03:46:02;;;;;;;291.57;39.07;;;-0.50;99.90;;;;;;5034635;28;20469;-29
2022/12/11 03:48:34;;;;;;;278.03;37.80;;;-0.40;99.90;;;;;;5033784;28;20132;-29
2022/12/11 03:51:02;;;;;;;288.47;39.53;;;-0.50;99.90;;;;;;5033762;28;20045;-30
2022/12/11 03:53:28;;;;;;;262.03;38.97;;;-0.50;99.90;;;;;;5033121;28;20045;-29
2022/12/11 03:55:57;;;;;;;241.30;36.93;;;-0.40;99.90;;;;;;5034491;28;20045;-29
2022/12/11 03:58:23;;;;;;;251.23;37.70;;;-0.50;99.90;;;;;;5033538;28;20095;-30
2022/12/11 04:00:48;;;;;;;241.13;36.00;;;-0.50;99.90;;;;;;5034177;28;20049;-30
2022/12/11 04:03:15;;;;;;;238.70;34.77;;;-0.30;99.90;;;;;;5016263;28;20046;-30
2022/12/11 04:05:46;;;;;;;249.20;35.57;;;-0.40;99.90;;;;;;5033887;28;20118;-30
2022/12/11 04:08:13;;;;;;;233.10;36.10;;;-0.40;99.90;;;;;;5040311;28;20049;-29
2022/12/11 04:10:39;;;;;;;219.57;33.63;;;-0.40;99.90;;;;;;5040113;28;20045;-30
2022/12/11 04:13:05;;;;;;;218.33;32.63;;;-0.30;99.90;;;;;;5040174;28;20049;-30
2022/12/11 04:15:31;;;;;;;224.17;33.13;;;-0.30;99.90;;;;;;5040073;28;20049;-30
2022/12/11 04:26:13;;;;;;;203.07;31.80;;;-0.40;99.90;;;;;;5024907;28;20514;-30
2022/12/11 04:28:42;;;;;;;177.03;31.03;;;0.40;99.90;;;;;;5039406;28;20088;-31
2022/12/11 04:31:18;;;;;;;219.97;30.37;;;-0.30;99.90;;;;;;5040510;28;20053;-30
2022/12/11 04:33:45;;;;;;;202.60;31.63;;;-0.20;99.90;;;;;;5040591;28;20510;-31
2022/12/11 04:36:12;;;;;;;203.67;33.27;;;-0.40;99.90;;;;;;5039934;28;20098;-31
2022/12/11 04:38:37;;;;;;;218.83;32.13;;;-0.30;99.90;;;;;;5039537;28;20479;-30
2022/12/11 04:41:07;;;;;;;182.50;31.70;;;-0.20;99.90;;;;;;5038725;28;20146;-30
2022/12/11 04:43:33;;;;;;;212.13;31.40;;;-0.20;99.90;;;;;;5039840;28;20095;-30
2022/12/11 04:46:04;;;;;;;223.07;34.23;;;0.10;99.90;;;;;;5039820;28;20128;-30
2022/12/11 04:48:29;;;;;;;226.17;34.63;;;-0.40;99.90;;;;;;5039800;28;20120;-32
2022/12/11 04:50:55;;;;;;;198.60;31.30;;;-0.20;99.90;;;;;;5039154;28;20195;-30
2022/12/11 04:53:21;;;;;;;225.77;34.23;;;-0.20;99.90;;;;;;5040615;28;20151;-30
2022/12/11 04:55:46;;;;;;;217.10;33.03;;;-0.40;99.90;;;;;;5072104;28;20472;-30
2022/12/11 04:58:12;;;;;;;157.47;29.97;;;-0.10;99.90;;;;;;5039357;28;20041;-31
2022/12/11 05:00:40;;;;;;;169.20;32.10;;;-0.10;99.90;;;;;;5039663;28;20041;-31
2022/12/11 05:03:05;;;;;;;204.57;32.70;;;-0.30;99.90;;;;;;5039671;28;20484;-30
2022/12/11 05:05:31;;;;;;;195.67;33.80;;;-0.20;99.90;;;;;;5055643;28;20111;-32
2022/12/11 05:07:57;;;;;;;174.20;30.07;;;-0.30;99.90;;;;;;5039270;28;20045;-31
2022/12/11 05:10:22;;;;;;;196.83;31.80;;;-0.20;99.90;;;;;;5039579;28;20049;-30
2022/12/11 05:12:48;;;;;;;181.07;32.17;;;-0.10;99.90;;;;;;5040671;28;20052;-31
2022/12/11 05:15:14;;;;;;;169.17;31.70;;;-0.10;99.90;;;;;;5040444;28;20045;-31
2022/12/11 05:17:39;;;;;;;179.57;28.57;;;-0.30;99.90;;;;;;5038248;28;20045;-30
2022/12/11 05:20:06;;;;;;;176.07;30.07;;;-0.20;99.90;;;;;;5036999;28;20049;-31
2022/12/11 05:22:32;;;;;;;194.47;33.03;;;-0.30;99.90;;;;;;5036302;28;20119;-31
2022/12/11 05:24:57;;;;;;;198.57;32.70;;;-0.10;99.90;;;;;;5036915;28;20049;-31
2022/12/11 05:27:23;;;;;;;207.40;33.47;;;-0.30;99.90;;;;;;5036763;28;20506;-31
2022/12/11 05:29:49;;;;;;;171.67;32.13;;;-0.40;99.90;;;;;;5068594;28;20187;-31
2022/12/11 05:32:14;;;;;;;199.97;33.77;;;-0.30;99.90;;;;;;5036772;28;20045;-31
2022/12/11 05:34:40;;;;;;;231.80;33.57;;;-0.20;99.90;;;;;;5034942;28;20052;-31
2022/12/11 05:37:06;;;;;;;163.53;28.97;;;-0.10;99.90;;;;;;5036938;28;20045;-31
2022/12/11 05:39:32;;;;;;;195.80;30.53;;;-0.10;99.90;;;;;;5036565;28;20490;-31
2022/12/11 05:41:58;;;;;;;184.53;31.73;;;-0.30;99.90;;;;;;5035077;28;20052;-32
2022/12/11 05:44:24;;;;;;;209.27;32.80;;;-0.20;99.90;;;;;;5036058;28;20056;-32
2022/12/11 05:46:50;;;;;;;211.70;33.13;;;-0.30;99.90;;;;;;5035936;28;20103;-31
2022/12/11 05:49:15;;;;;;;194.13;32.80;;;-0.20;99.90;;;;;;5034779;28;20045;-32
2022/12/11 05:51:42;;;;;;;225.30;33.40;;;-0.50;99.90;;;;;;5035905;28;20141;-31
2022/12/11 05:54:09;;;;;;;185.13;30.40;;;-0.20;99.90;;;;;;5035775;28;20079;-32
2022/12/11 05:56:35;;;;;;;176.80;31.23;;;0.00;99.90;;;;;;5035759;28;20045;-32
2022/12/11 05:59:03;;;;;;;178.43;31.97;;;-0.10;99.90;;;;;;5035717;28;20045;-32
2022/12/11 06:01:35;;;;;;;196.30;31.80;;;0.00;99.90;;;;;;5035691;28;20103;-32
2022/12/11 06:04:02;;;;;;;168.37;31.83;;;-0.40;99.90;;;;;;5035619;28;20049;-32
2022/12/11 06:06:28;;;;;;;171.60;32.17;;;-0.20;99.90;;;;;;5035571;28;20042;-32
2022/12/11 06:08:55;;;;;;;172.33;32.67;;;-0.10;99.90;;;;;;5036080;28;20044;-32
2022/12/11 06:11:22;;;;;;;188.00;34.10;;;-0.10;99.90;;;;;;5017705;28;20117;-32
2022/12/11 06:13:48;;;;;;;172.17;32.40;;;-0.10;99.90;;;;;;5034233;28;20045;-33
2022/12/11 06:16:15;;;;;;;157.83;30.37;;;0.10;99.90;;;;;;5067815;28;20044;-33
2022/12/11 06:18:43;;;;;;;241.60;35.03;;;0.00;99.90;;;;;;5050910;28;20046;-32
2022/12/11 06:21:16;;;;;;;214.10;34.67;;;0.70;99.90;;;;;;5035230;28;20050;-32
2022/12/11 06:23:45;;;;;;;172.33;32.37;;;0.00;99.90;;;;;;5035246;28;20060;-32
2022/12/11 06:26:12;;;;;;;179.67;32.30;;;0.60;99.90;;;;;;5034952;28;20494;-32
2022/12/11 06:28:38;;;;;;;194.53;32.73;;;-0.30;99.90;;;;;;5035524;28;20049;-32
2022/12/11 06:31:04;;;;;;;145.83;29.70;;;-0.10;99.90;;;;;;5035009;28;20483;-33
2022/12/11 06:33:30;;;;;;;174.23;33.73;;;-0.30;99.90;;;;;;5035613;28;20049;-33
2022/12/11 06:36:01;;;;;;;183.80;33.47;;;-0.20;99.90;;;;;;5035813;28;20049;-32
2022/12/11 06:38:27;;;;;;;194.20;31.30;;;-0.20;99.90;;;;;;5035508;28;20046;-32
2022/12/11 06:41:03;;;;;;;182.53;30.70;;;-0.20;99.90;;;;;;5035434;28;20385;-32
2022/12/11 06:43:29;;;;;;;179.40;30.10;;;-0.20;99.90;;;;;;5034767;28;20053;-33
2022/12/11 06:45:55;;;;;;;155.30;28.17;;;-0.10;99.90;;;;;;5034829;28;20547;-32
2022/12/11 06:48:20;;;;;;;166.43;31.10;;;-0.20;99.90;;;;;;5035078;28;20129;-32
2022/12/11 06:50:46;;;;;;;169.20;30.77;;;0.60;99.90;;;;;;5035268;28;20388;-33
2022/12/11 06:53:13;;;;;;;170.10;31.23;;;-0.30;99.90;;;;;;5034407;28;20054;-33
2022/12/11 06:55:40;;;;;;;193.23;29.87;;;0.00;99.90;;;;;;5035252;28;20050;-33
2022/12/11 06:58:06;;;;;;;179.67;30.30;;;-0.20;99.90;;;;;;5034530;28;20049;-33
2022/12/11 07:00:34;;;;;;;193.57;31.07;;;-0.20;99.90;;;;;;5034572;28;20048;-33
2022/12/11 07:03:00;;;;;;;182.20;28.83;;;-0.10;99.90;;;;;;5034585;28;20053;-32
2022/12/11 07:05:26;;;;;;;170.83;30.10;;;0.40;99.90;;;;;;5035266;28;20049;-33
2022/12/11 07:07:53;;;;;;;172.00;29.00;;;-0.50;99.90;;;;;;5034446;28;20041;-33
2022/12/11 07:10:20;;;;;;;157.83;29.30;;;0.10;99.90;;;;;;5033170;28;20088;-32
2022/12/11 07:12:45;;;;;;;171.73;30.50;;;-0.30;99.90;;;;;;5034350;28;20049;-33
2022/12/11 07:15:11;;;;;;;182.03;30.47;;;-0.10;99.90;;;;;;5033110;28;20547;-33
2022/12/11 07:17:37;;;;;;;155.47;28.13;;;-0.20;99.90;;;;;;5034235;28;20140;-33
2022/12/11 07:20:03;;;;;;;193.00;30.80;;;-0.10;99.90;;;;;;5034223;28;20053;-33
2022/12/11 07:22:29;;;;;;;170.67;31.70;;;-0.20;99.90;;;;;;5034687;28;20053;-33
2022/12/11 07:24:55;;;;;;;167.00;29.50;;;-0.30;99.90;;;;;;5034144;28;20395;-33
2022/12/11 07:27:20;;;;;;;142.83;27.27;;;-0.10;99.90;;;;;;5032764;28;20058;-33
2022/12/11 07:29:46;;;;;;;171.07;29.63;;;-0.30;99.90;;;;;;5034062;28;20045;-33
2022/12/11 07:32:12;;;;;;;197.80;30.77;;;-0.10;99.90;;;;;;5032876;28;20052;-32
2022/12/11 07:34:37;;;;;;;185.93;32.07;;;-0.30;99.90;;;;;;5066276;28;20053;-33
2022/12/11 07:37:03;;;;;;;188.83;31.33;;;-0.10;99.90;;;;;;5017086;28;20045;-33
2022/12/11 07:39:29;;;;;;;182.47;30.87;;;-0.40;99.90;;;;;;5034374;28;20042;-33
2022/12/11 07:41:54;;;;;;;172.20;30.10;;;-0.10;99.90;;;;;;5033084;28;20114;-33
2022/12/11 07:44:20;;;;;;;188.30;30.93;;;-0.30;99.90;;;;;;5066928;28;20045;-33
2022/12/11 07:46:46;;;;;;;161.33;28.77;;;-0.10;99.90;;;;;;5033761;28;20553;-33
2022/12/11 07:49:11;;;;;;;170.90;30.20;;;-0.30;99.90;;;;;;5033812;28;20049;-33
2022/12/11 07:51:38;;;;;;;173.43;28.90;;;0.00;99.90;;;;;;5033702;28;20373;-33
2022/12/11 07:54:11;;;;;;;160.93;29.90;;;0.00;99.90;;;;;;5033943;28;20476;-34
2022/12/11 07:56:37;;;;;;;163.20;29.90;;;-0.10;99.90;;;;;;5033733;28;20107;-35
2022/12/11 07:59:04;;;;;;;192.10;31.63;;;-0.10;99.90;;;;;;5033630;28;20045;-34
2022/12/11 08:01:34;;;;;;;170.57;30.23;;;-0.20;99.90;;;;;;5033866;28;20546;-34
2022/12/11 08:04:00;;;;;;;184.80;31.40;;;-0.20;99.90;;;;;;5033576;28;20049;-33
2022/12/11 08:06:31;;;;;;;190.80;30.33;;;-0.20;99.90;;;;;;5033524;28;20064;-34
2022/12/11 08:08:59;;;;;;;169.27;29.93;;;-0.10;99.90;;;;;;5033894;28;20045;-33
2022/12/11 08:11:25;;;;;;;179.17;30.50;;;-0.20;99.90;;;;;;5015910;28;20045;-33
2022/12/11 08:13:51;;;;;;;191.60;32.23;;;0.70;99.90;;;;;;5034336;28;20173;-33
2022/12/11 08:16:18;;;;;;;167.63;30.33;;;-0.10;99.90;;;;;;5033488;28;20050;-33
2022/12/11 08:18:44;;;;;;;184.47;31.23;;;-0.20;99.90;;;;;;5033420;28;20041;-34
2022/12/11 08:21:16;;;;;;;183.40;31.00;;;-0.20;99.90;;;;;;5033646;28;20085;-33
2022/12/11 08:23:42;;;;;;;196.87;31.17;;;0.00;99.90;;;;;;5032320;28;20048;-33
2022/12/11 08:26:11;;;;;;;223.63;32.73;;;0.30;99.90;;;;;;5033190;28;20049;-34
2022/12/11 08:28:37;;;;;;;196.40;32.23;;;-0.20;99.90;;;;;;5033304;28;20146;-36
2022/12/11 08:31:05;;;;;;;207.93;32.03;;;-0.20;99.90;;;;;;5066215;28;20176;-33
2022/12/11 08:33:31;;;;;;;172.83;30.97;;;0.00;99.90;;;;;;5033273;28;20052;-34
2022/12/11 08:35:57;;;;;;;185.80;31.93;;;-0.20;99.90;;;;;;5033314;28;20049;-34
2022/12/11 08:38:23;;;;;;;165.87;28.97;;;-0.10;99.90;;;;;;5032948;28;20038;-34
2022/12/11 08:40:48;;;;;;;190.57;32.80;;;0.00;99.90;;;;;;5032470;28;20045;-34
2022/12/11 08:43:14;;;;;;;216.17;34.97;;;-0.20;99.90;;;;;;5033555;28;20046;-34
2022/12/11 08:45:40;;;;;;;226.33;36.27;;;-0.20;99.90;;;;;;5033565;28;20049;-34
2022/12/11 08:48:05;;;;;;;199.97;31.03;;;0.00;99.90;;;;;;5032971;28;20116;-34
2022/12/11 08:50:31;;;;;;;206.17;32.73;;;-0.10;99.90;;;;;;5032907;28;20049;-35
2022/12/11 08:52:57;;;;;;;209.37;33.30;;;-0.10;99.90;;;;;;5034926;28;20053;-35
2022/12/11 08:55:23;;;;;;;196.87;34.40;;;0.00;99.90;;;;;;5036607;28;20049;-35
2022/12/11 08:57:49;;;;;;;195.47;34.13;;;0.00;99.90;;;;;;5036620;28;20045;-34
2022/12/11 09:00:17;;;;;;;192.53;33.03;;;0.00;99.90;;;;;;5036882;28;20050;-35
2022/12/11 09:02:43;;;;;;;227.50;35.27;;;0.00;99.90;;;;;;5036095;28;20125;-36
2022/12/11 09:05:09;;;;;;;192.40;32.57;;;-0.10;99.90;;;;;;5036006;28;20111;-35
2022/12/11 09:07:36;;;;;;;212.47;33.97;;;-0.10;99.90;;;;;;5036630;28;20053;-38
2022/12/11 09:10:05;;;;;;;220.90;35.53;;;-0.10;99.90;;;;;;5036606;28;20088;-39
2022/12/11 09:12:32;;;;;;;205.70;33.40;;;-0.10;99.90;;;;;;5035296;28;20503;-39
2022/12/11 09:14:58;;;;;;;220.37;35.47;;;-0.10;99.90;;;;;;5035461;28;20054;-39
2022/12/11 09:17:23;;;;;;;216.97;35.10;;;0.00;99.90;;;;;;5035567;28;20041;-40
2022/12/11 09:19:49;;;;;;;233.97;35.00;;;0.00;99.90;;;;;;5018700;28;20092;-39
2022/12/11 09:22:15;;;;;;;199.87;34.87;;;-0.10;99.90;;;;;;5036581;28;20132;-40
2022/12/11 09:24:41;;;;;;;218.70;36.53;;;0.10;99.90;;;;;;5036387;28;20056;-40
2022/12/11 09:27:07;;;;;;;257.90;38.07;;;0.10;99.90;;;;;;5036075;28;20057;-39
2022/12/11 09:29:33;;;;;;;220.97;35.47;;;0.10;99.90;;;;;;5035294;28;20088;-41
2022/12/11 09:31:58;;;;;;;202.27;34.57;;;0.00;99.90;;;;;;5036694;28;20045;-41
2022/12/11 09:34:24;;;;;;;242.73;37.23;;;0.00;99.90;;;;;;5036088;28;20048;-42
2022/12/11 09:36:50;;;;;;;215.80;36.50;;;0.00;99.90;;;;;;5036128;28;20054;-42
2022/12/11 09:39:17;;;;;;;222.97;35.03;;;0.00;99.90;;;;;;5036215;28;20046;-42
2022/12/11 09:42:19;;;;;;;235.77;36.33;;;0.10;99.90;;;;;;5035958;28;20050;-42
2022/12/11 09:44:52;;;;;;;208.98;34.85;;;0.10;99.90;;;;;;5024704;28;20136;-42
2022/12/11 09:47:33;;;;;;;214.60;34.50;;;0.00;99.90;;;;;;5069013;28;20068;-42
2022/12/11 09:50:29;;;;;;;199.83;34.60;;;0.10;99.90;;;;;;5036756;28;20081;-43
2022/12/11 09:53:08;;;;;;;193.37;34.13;;;0.20;99.90;;;;;;5036565;28;20081;-43
2022/12/11 09:55:55;;;;;;;224.10;35.37;;;0.20;99.90;;;;;;5067676;28;20111;-43
2022/12/11 09:59:03;;;;;;;227.87;35.97;;;0.10;99.90;;;;;;5035688;28;20500;-44
2022/12/11 10:01:41;;;;;;;226.03;34.23;;;0.20;99.90;;;;;;5035681;28;20133;-43
2022/12/11 10:04:16;;;;;;;231.13;38.03;;;0.30;99.90;;;;;;5034995;28;20139;-44
2022/12/11 10:07:04;;;;;;;224.87;36.53;;;-0.20;99.90;;;;;;5035539;28;20053;-44
2022/12/11 10:09:50;;;;;;;195.87;32.27;;;0.20;99.90;;;;;;5035477;28;20183;-44
2022/12/11 10:12:46;;;;;;;222.57;37.37;;;0.30;99.90;;;;;;5050989;28;20045;-44
2022/12/11 10:15:24;;;;;;;198.60;33.67;;;0.30;99.90;;;;;;5036259;28;20402;-44
2022/12/11 10:17:52;;;;;;;208.30;36.67;;;0.30;99.90;;;;;;5036111;28;20392;-44
2022/12/11 10:20:38;;;;;;;222.90;36.03;;;0.30;99.90;;;;;;5035045;28;20495;-44
2022/12/11 10:23:06;;;;;;;238.40;37.43;;;0.30;99.90;;;;;;5068131;28;20050;-44
2022/12/11 10:25:57;;;;;;;227.70;36.80;;;0.40;99.90;;;;;;5035221;28;20106;-44
2022/12/11 10:28:26;;;;;;;213.53;35.77;;;0.50;99.90;;;;;;5035542;28;20369;-43
2022/12/11 10:31:00;;;;;;;253.63;38.67;;;1.20;99.90;;;;;;5035439;28;20056;-43
2022/12/11 10:33:40;;;;;;;263.70;39.50;;;0.50;99.90;;;;;;5035097;28;20053;-42
2022/12/11 10:36:07;;;;;;;249.67;39.10;;;0.50;99.90;;;;;;5034802;28;20496;-43
2022/12/11 10:38:42;;;;;;;223.57;36.30;;;0.60;99.90;;;;;;5034628;28;20407;-43
2022/12/11 10:41:20;;;;;;;219.93;37.13;;;0.70;99.90;;;;;;5034747;28;20100;-43
2022/12/11 10:43:48;;;;;;;224.33;36.80;;;0.30;99.90;;;;;;5035138;28;20120;-43
2022/12/11 10:46:18;;;;;;;208.03;36.43;;;0.20;99.90;;;;;;5035648;28;20049;-43
2022/12/11 10:48:48;;;;;;;247.13;40.00;;;0.50;99.90;;;;;;5034755;28;20077;-43
2022/12/11 10:51:14;;;;;;;198.73;36.97;;;0.60;99.90;;;;;;5034784;28;20046;-43
2022/12/11 10:53:42;;;;;;;206.68;37.90;;;0.60;99.90;;;;;;5035307;28;20132;-42
2022/12/11 10:56:08;;;;;;;194.70;38.43;;;0.70;99.90;;;;;;5034677;28;20053;-42
2022/12/11 10:58:40;;;;;;;193.27;36.55;;;0.70;99.90;;;;;;5034595;28;20049;-42
2022/12/11 11:01:14;;;;;;;167.02;32.42;;;0.70;99.90;;;;;;5033455;28;20053;-42
2022/12/11 11:04:03;;;;;;;173.85;33.17;;;0.70;99.90;;;;;;5035422;28;20076;-41
2022/12/11 11:06:29;;;;;;;157.57;33.30;;;0.60;99.90;;;;;;5035158;28;20049;-41
2022/12/11 11:09:00;;;;;;;146.77;30.85;;;1.10;99.90;;;;;;5034724;28;20438;-39
2022/12/11 11:11:33;;;;;;;142.50;31.57;;;0.60;99.90;;;;;;5034441;28;20057;-38
2022/12/11 11:14:05;;;;;;;;;;;0.60;99.90;;;;;;5035692;28;20437;-38
2022/12/11 11:16:34;;;;;;;169.27;35.60;;;0.60;99.90;;;;;;5034209;28;20015;-38
2022/12/11 11:19:00;;;;;;;202.90;42.67;;;0.60;99.90;;;;;;5033901;28;20046;-34
2022/12/11 11:21:28;;;;;;;186.67;44.47;;;0.60;99.90;;;;;;5034199;28;20136;-36
2022/12/11 11:23:54;;;;;;;191.57;46.67;;;0.70;99.90;;;;;;5034170;28;20053;-35
2022/12/11 11:26:21;;;;;;;182.37;46.50;;;0.70;99.90;;;;;;5032837;28;20416;-35
2022/12/11 11:28:54;;;;;;;179.55;47.60;;;1.60;99.90;;;;;;5034224;28;20144;-34
2022/12/11 11:31:29;;;;;;;191.85;45.08;;;0.20;99.90;;;;;;5034443;28;20049;-37
2022/12/11 11:33:56;;;;;;;190.57;38.08;;;0.80;99.90;;;;;;5034336;28;20085;-34
2022/12/11 11:36:27;;;;;;;462.17;184.13;;;0.90;99.90;;;;;;5034269;28;20129;-33
2022/12/11 11:39:24;;;;;;;152.77;39.23;;;0.70;99.90;;;;;;5033858;28;20037;-35
2022/12/11 11:41:56;;;;;;;166.77;38.43;;;0.70;99.90;;;;;;5066547;28;20045;-34
2022/12/11 11:44:41;;;;;;;145.05;42.33;;;0.60;99.90;;;;;;5033873;28;20052;-33
2022/12/11 11:47:21;;;;;;;171.50;37.83;;;0.70;99.90;;;;;;5033838;28;20510;-33
2022/12/11 11:49:54;;;;;;;154.80;35.37;;;0.60;99.90;;;;;;5034425;28;20041;-33
2022/12/11 11:52:24;;;;;;;;;;;0.70;99.90;;;;;;5033405;28;20143;-34
2022/12/11 11:54:59;;;;;;;146.32;34.28;;;1.50;99.90;;;;;;5032591;28;20349;-34
2022/12/11 11:57:49;;;;;;;170.60;35.35;;;0.80;99.90;;;;;;5033734;28;20504;-33
2022/12/11 12:00:26;;;;;;;181.87;37.33;;;0.80;99.90;;;;;;5049274;28;20049;-34
2022/12/11 12:02:59;;;;;;;189.13;48.97;;;0.80;99.90;;;;;;5033591;28;20060;-34
2022/12/11 12:05:42;;;;;;;211.15;61.42;;;0.90;99.90;;;;;;5032677;28;20110;-33
2022/12/11 12:08:38;;;;;;;220.32;66.18;;;0.90;99.90;;;;;;5033696;28;20146;-34
2022/12/11 12:11:27;;;;;;;187.02;60.30;;;0.80;99.90;;;;;;5032378;28;20516;-34
2022/12/11 12:14:02;;;;;;;136.02;32.50;;;1.20;99.90;;;;;;5033732;28;20068;-34
2022/12/11 12:16:35;;;;;;;116.00;33.13;;;1.20;99.90;;;;;;5015749;28;20041;-34
2022/12/11 12:19:25;;;;;;;124.17;36.00;;;1.00;99.90;;;;;;5033464;28;20128;-35
2022/12/11 12:21:54;;;;;;;130.40;33.72;;;0.60;99.90;;;;;;5033343;28;20436;-35
2022/12/11 12:24:46;;;;;;;129.82;34.33;;;1.10;99.90;;;;;;5033043;28;20436;-34
2022/12/11 12:27:26;;;;;;;134.90;35.22;;;0.90;99.90;;;;;;5034513;28;20407;-35
2022/12/11 12:30:07;;;;;;;113.72;35.33;;;0.80;99.90;;;;;;5037686;28;20502;-35
2022/12/11 12:32:57;;;;;;;121.88;36.20;;;0.80;99.90;;;;;;5069419;28;20093;-35
2022/12/11 12:35:33;;;;;;;113.97;39.73;;;0.80;99.90;;;;;;5038174;28;20115;-35
2022/12/11 12:38:20;;;;;;;132.60;33.50;;;0.80;99.90;;;;;;5037210;28;20136;-34
2022/12/11 12:40:58;;;;;;;117.53;31.40;;;0.80;99.90;;;;;;5037262;28;20046;-34
2022/12/11 12:43:53;;;;;;;111.53;31.60;;;0.80;99.90;;;;;;5037468;28;20049;-35
2022/12/11 12:46:48;;;;;;;125.45;30.88;;;1.10;99.90;;;;;;5032217;28;20045;-34